createdAt,value
2023-02-03T00:00:58.105Z,108.70
2023-02-03T00:03:47.121Z,121.43
2023-02-03T00:06:37.144Z,114.55
2023-02-03T00:09:20.055Z,112.50
2023-02-03T00:12:09.171Z,110.45
2023-02-03T00:14:58.057Z,113.50
2023-02-03T00:17:47.116Z,114.43
2023-02-03T00:20:29.529Z,117.10
2023-02-03T00:23:24.104Z,113.97
2023-02-03T00:26:13.767Z,110.78
2023-02-03T00:29:03.225Z,110.65
2023-02-03T00:31:51.501Z,113.38
2023-02-03T00:34:38.096Z,105.72
2023-02-03T00:37:26.485Z,111.78
2023-02-03T00:40:10.178Z,112.55
2023-02-03T00:42:58.447Z,119.28
2023-02-03T00:45:41.244Z,118.70
2023-02-03T00:48:29.465Z,115.82
2023-02-03T00:51:12.124Z,119.28
2023-02-03T00:53:54.457Z,110.88
2023-02-03T00:56:45.114Z,115.40
2023-02-03T00:59:27.399Z,115.57
2023-02-03T01:02:16.264Z,115.35
2023-02-03T01:05:07.429Z,117.13
2023-02-03T01:07:51.229Z,130.80
2023-02-03T01:10:40.463Z,106.40
2023-02-03T01:13:23.237Z,115.30
2023-02-03T01:16:14.458Z,114.22
2023-02-03T01:18:57.190Z,123.05
2023-02-03T01:21:47.881Z,117.13
2023-02-03T01:24:31.112Z,122.10
2023-02-03T01:27:13.496Z,120.60
2023-02-03T01:30:02.141Z,117.07
2023-02-03T01:32:44.467Z,112.65
2023-02-03T01:35:33.158Z,119.50
2023-02-03T01:38:22.375Z,123.22
2023-02-03T01:41:05.078Z,119.53
2023-02-03T01:43:57.501Z,113.85
2023-02-03T01:47:03.123Z,114.97
2023-02-03T01:50:01.121Z,123.60
2023-02-03T01:52:44.402Z,119.40
2023-02-03T01:55:42.104Z,128.50
2023-02-03T01:58:41.401Z,125.15
2023-02-03T02:01:30.175Z,127.57
2023-02-03T02:04:13.469Z,120.38
2023-02-03T02:07:07.084Z,134.90
2023-02-03T02:09:50.344Z,131.55
2023-02-03T02:12:39.101Z,135.60
2023-02-03T02:15:22.427Z,125.68
2023-02-03T02:18:30.105Z,136.98
2023-02-03T02:21:31.100Z,131.00
2023-02-03T02:24:23.111Z,129.95
2023-02-03T02:27:24.138Z,136.07
2023-02-03T02:30:56.265Z,134.30
2023-02-03T02:34:21.458Z,144.63
2023-02-03T02:37:17.105Z,131.40
2023-02-03T02:40:19.140Z,148.68
2023-02-03T02:43:18.379Z,141.18
2023-02-03T02:46:42.158Z,141.55
2023-02-03T02:49:42.354Z,145.02
2023-02-03T02:52:34.233Z,149.50
2023-02-03T02:55:29.412Z,146.05
2023-02-03T02:58:25.160Z,141.75
2023-02-03T03:01:07.420Z,163.25
2023-02-03T03:03:58.100Z,159.75
2023-02-03T03:06:58.070Z,148.85
2023-02-03T03:09:50.348Z,167.80
2023-02-03T03:12:45.072Z,156.45
2023-02-03T03:15:38.998Z,169.30
2023-02-03T03:18:28.101Z,174.30
2023-02-03T03:21:19.361Z,183.02
2023-02-03T03:24:05.126Z,182.02
2023-02-03T03:27:24.098Z,187.95
2023-02-03T03:30:19.455Z,175.98
2023-02-03T03:33:02.144Z,161.55
2023-02-03T03:36:04.758Z,172.15
2023-02-03T03:39:08.138Z,162.93
2023-02-03T03:42:10.457Z,162.52
2023-02-03T03:45:03.103Z,160.65
2023-02-03T03:47:55.163Z,163.27
2023-02-03T03:50:53.114Z,161.90
2023-02-03T03:53:38.565Z,166.45
2023-02-03T03:56:34.083Z,161.32
2023-02-03T03:59:28.345Z,161.05
2023-02-03T04:02:12.218Z,177.43
2023-02-03T04:04:55.641Z,170.80
2023-02-03T04:07:58.086Z,174.40
2023-02-03T04:10:42.867Z,158.43
2023-02-03T04:13:32.110Z,147.85
2023-02-03T04:16:21.536Z,142.38
2023-02-03T04:19:04.636Z,145.95
2023-02-03T04:21:54.135Z,164.48
2023-02-03T04:24:36.391Z,144.38
2023-02-03T04:27:25.200Z,135.13
2023-02-03T04:30:14.418Z,117.50
2023-02-03T04:32:57.076Z,115.15
2023-02-03T04:35:46.083Z,123.13
2023-02-03T04:38:28.408Z,109.72
2023-02-03T04:41:17.107Z,118.88
2023-02-03T04:43:59.511Z,110.50
2023-02-03T04:46:48.114Z,127.15
2023-02-03T04:49:31.422Z,123.57
2023-02-03T04:52:21.105Z,119.00
2023-02-03T04:55:12.119Z,119.13
2023-02-03T04:58:08.354Z,118.03
2023-02-03T05:00:50.145Z,113.53
2023-02-03T05:03:38.490Z,110.05
2023-02-03T05:06:21.149Z,124.90
2023-02-03T05:09:10.378Z,122.30
2023-02-03T05:11:52.058Z,113.63
2023-02-03T05:14:34.343Z,102.28
2023-02-03T05:17:23.154Z,103.65
2023-02-03T05:20:12.368Z,121.18
2023-02-03T05:22:55.065Z,101.57
2023-02-03T05:25:44.099Z,113.17
2023-02-03T05:28:26.374Z,103.55
2023-02-03T05:31:15.175Z,124.53
2023-02-03T05:33:57.359Z,118.88
2023-02-03T05:36:46.380Z,116.68
2023-02-03T05:39:28.535Z,119.80
2023-02-03T05:42:17.059Z,112.97
2023-02-03T05:44:59.526Z,94.10
2023-02-03T05:47:48.113Z,111.47
2023-02-03T05:50:35.303Z,100.85
2023-02-03T05:53:27.176Z,93.78
2023-02-03T05:56:09.547Z,103.70
2023-02-03T05:59:01.088Z,104.38
2023-02-03T06:01:50.011Z,100.35
2023-02-03T06:04:39.108Z,96.13
2023-02-03T06:07:28.081Z,85.55
2023-02-03T06:10:17.985Z,82.43
2023-02-03T06:13:07.111Z,80.22
2023-02-03T06:15:56.447Z,69.75
2023-02-03T06:18:39.071Z,72.90
2023-02-03T06:21:35.116Z,69.50
2023-02-03T06:24:17.295Z,58.53
2023-02-03T06:27:06.168Z,61.30
2023-02-03T06:29:48.292Z,60.83
2023-02-03T06:32:37.182Z,70.35
2023-02-03T06:35:20.142Z,57.60
2023-02-03T06:38:09.050Z,63.83
2023-02-03T06:40:51.712Z,73.68
2023-02-03T06:43:41.097Z,55.00
2023-02-03T06:46:31.245Z,66.15
2023-02-03T06:49:13.144Z,59.72
2023-02-03T06:52:01.370Z,60.28
2023-02-03T06:54:43.104Z,56.33
2023-02-03T06:57:31.384Z,59.70
2023-02-03T07:00:15.597Z,70.75
2023-02-03T07:03:00.843Z,64.88
2023-02-03T07:05:50.165Z,61.78
2023-02-03T07:08:39.324Z,62.75
2023-02-03T07:11:21.172Z,68.13
2023-02-03T07:14:10.362Z,59.63
2023-02-03T07:16:53.073Z,63.60
2023-02-03T07:19:42.059Z,56.75
2023-02-03T07:22:24.349Z,60.90
2023-02-03T07:25:13.053Z,56.90
2023-02-03T07:27:55.449Z,53.13
2023-02-03T07:30:44.122Z,48.13
2023-02-03T07:33:26.525Z,48.67
2023-02-03T07:36:16.050Z,44.33
2023-02-03T07:38:58.575Z,42.05
2023-02-03T07:41:48.078Z,52.88
2023-02-03T07:44:31.429Z,53.88
2023-02-03T07:47:20.355Z,54.78
2023-02-03T07:50:02.530Z,55.42
2023-02-03T07:52:51.088Z,55.03
2023-02-03T07:55:33.788Z,51.80
2023-02-03T07:58:25.052Z,54.80
2023-02-03T08:01:07.323Z,55.78
2023-02-03T08:03:56.164Z,59.53
2023-02-03T08:06:38.518Z,56.55
2023-02-03T08:09:27.031Z,57.22
2023-02-03T08:12:16.095Z,57.92
2023-02-03T08:14:58.349Z,60.78
2023-02-03T08:17:50.116Z,58.55
2023-02-03T08:20:39.528Z,66.20
2023-02-03T08:23:21.043Z,63.15
2023-02-03T08:26:10.550Z,72.18
2023-02-03T08:29:06.035Z,70.78
2023-02-03T08:31:55.473Z,64.05
2023-02-03T08:34:56.273Z,69.93
2023-02-03T08:37:38.575Z,67.22
2023-02-03T08:40:28.273Z,63.28
2023-02-03T08:43:10.387Z,66.03
2023-02-03T08:46:00.205Z,67.50
2023-02-03T08:48:42.553Z,57.70
2023-02-03T08:51:32.117Z,60.67
2023-02-03T08:54:14.505Z,58.78
2023-02-03T08:57:03.356Z,64.10
2023-02-03T08:59:50.670Z,66.70
2023-02-03T09:02:39.130Z,75.43
2023-02-03T09:05:21.514Z,62.65
2023-02-03T09:08:10.174Z,70.93
2023-02-03T09:10:52.492Z,70.07
2023-02-03T09:13:42.113Z,58.65
2023-02-03T09:16:27.701Z,64.70
2023-02-03T09:19:17.045Z,67.00
2023-02-03T09:21:59.532Z,70.03
2023-02-03T09:24:48.101Z,69.10
2023-02-03T09:27:30.459Z,58.53
2023-02-03T09:30:20.157Z,56.55
2023-02-03T09:33:03.397Z,53.85
2023-02-03T09:36:01.025Z,56.07
2023-02-03T09:38:43.470Z,52.20
2023-02-03T09:41:52.245Z,48.83
2023-02-03T09:45:01.343Z,43.45
2023-02-03T09:47:53.079Z,46.90
2023-02-03T09:50:40.351Z,38.92
2023-02-03T09:53:39.043Z,35.72
2023-02-03T09:56:37.394Z,39.60
2023-02-03T09:59:27.095Z,45.35
2023-02-03T10:02:34.164Z,40.63
2023-02-03T10:05:32.001Z,42.70
2023-02-03T10:08:32.674Z,45.95
2023-02-03T10:11:45.072Z,47.90
2023-02-03T10:14:27.450Z,37.35
2023-02-03T10:17:38.092Z,36.33
2023-02-03T10:20:44.013Z,46.13
2023-02-03T10:23:30.476Z,42.08
2023-02-03T10:26:35.014Z,38.75
2023-02-03T10:29:45.954Z,45.58
2023-02-03T10:32:36.174Z,43.63
2023-02-03T10:35:23.404Z,40.00
2023-02-03T10:38:21.099Z,44.05
2023-02-03T10:41:10.190Z,48.50
2023-02-03T10:43:56.031Z,50.83
2023-02-03T10:46:51.048Z,47.28
2023-02-03T10:49:41.586Z,52.80
2023-02-03T10:53:00.141Z,47.47
2023-02-03T10:55:42.466Z,38.60
2023-02-03T10:58:41.996Z,43.70
2023-02-03T11:01:35.213Z,49.38
2023-02-03T11:04:39.493Z,42.72
2023-02-03T11:07:38.115Z,49.08
2023-02-03T11:10:36.828Z,56.10
2023-02-03T11:13:27.116Z,49.45
2023-02-03T11:16:29.463Z,47.53
2023-02-03T11:19:25.066Z,41.53
2023-02-03T11:22:14.011Z,42.97
2023-02-03T11:25:03.431Z,42.83
2023-02-03T11:27:46.381Z,48.50
2023-02-03T11:30:36.460Z,40.77
2023-02-03T11:33:27.014Z,39.17
2023-02-03T11:36:19.691Z,41.15
2023-02-03T11:39:37.073Z,41.17
2023-02-03T11:42:27.856Z,37.88
2023-02-03T11:45:51.013Z,48.22
2023-02-03T11:49:04.166Z,55.63
2023-02-03T11:52:17.120Z,53.55
2023-02-03T11:55:22.915Z,43.50
2023-02-03T11:58:43.068Z,45.35
2023-02-03T12:02:08.362Z,53.03
2023-02-03T12:05:12.100Z,47.45
2023-02-03T12:08:13.379Z,48.08
2023-02-03T12:11:14.158Z,42.80
2023-02-03T12:14:30.047Z,44.67
2023-02-03T12:18:00.071Z,58.67
2023-02-03T12:21:27.517Z,53.97
2023-02-03T12:24:32.114Z,69.50
2023-02-03T12:27:43.955Z,56.17
2023-02-03T12:30:54.047Z,71.80
2023-02-03T12:33:57.371Z,61.13
2023-02-03T12:36:49.010Z,70.03
2023-02-03T12:39:40.446Z,70.53
2023-02-03T12:42:36.328Z,64.22
2023-02-03T12:45:38.017Z,70.30
2023-02-03T12:48:26.419Z,66.25
2023-02-03T12:51:24.089Z,76.68
2023-02-03T12:54:29.439Z,56.65
2023-02-03T12:57:24.019Z,73.13
2023-02-03T13:00:27.964Z,59.88
2023-02-03T13:03:38.130Z,61.67
2023-02-03T13:06:47.464Z,57.05
2023-02-03T13:09:57.096Z,64.85
2023-02-03T13:12:42.223Z,62.97
2023-02-03T13:15:48.034Z,71.25
2023-02-03T13:18:56.545Z,54.25
2023-02-03T13:21:45.124Z,56.63
2023-02-03T13:24:32.522Z,61.78
2023-02-03T13:27:58.188Z,60.08
2023-02-03T13:31:06.010Z,64.18
2023-02-03T13:34:27.100Z,73.88
2023-02-03T13:37:44.492Z,61.00
2023-02-03T13:41:04.544Z,74.53
2023-02-03T13:43:54.738Z,66.28
2023-02-03T13:46:44.971Z,64.63
2023-02-03T13:49:35.444Z,57.80
2023-02-03T13:52:46.988Z,59.17
2023-02-03T13:55:45.105Z,52.63
2023-02-03T13:58:33.825Z,60.53
2023-02-03T14:01:45.046Z,51.97
2023-02-03T14:04:36.804Z,54.92
2023-02-03T14:07:48.057Z,59.17
2023-02-03T14:10:37.415Z,53.67
2023-02-03T14:13:37.175Z,60.33
2023-02-03T14:16:33.438Z,58.67
2023-02-03T14:19:40.044Z,65.03
2023-02-03T14:22:29.120Z,62.63
2023-02-03T14:25:15.505Z,72.85
2023-02-03T14:28:14.098Z,67.28
2023-02-03T14:31:38.115Z,55.63
2023-02-03T14:34:36.032Z,61.97
2023-02-03T14:37:22.054Z,50.42
2023-02-03T14:40:24.866Z,57.45
2023-02-03T14:43:22.514Z,57.20
2023-02-03T14:46:52.179Z,52.22
2023-02-03T14:49:47.048Z,66.22
2023-02-03T14:52:53.618Z,66.28
2023-02-03T14:56:06.985Z,55.03
2023-02-03T14:59:04.142Z,58.63
2023-02-03T15:01:53.116Z,60.72
2023-02-03T15:04:42.109Z,54.95
2023-02-03T15:08:04.434Z,53.28
2023-02-03T15:10:53.968Z,57.40
2023-02-03T15:13:40.321Z,60.17
2023-02-03T15:16:32.095Z,58.08
2023-02-03T15:19:25.633Z,70.60
2023-02-03T15:22:33.976Z,75.60
2023-02-03T15:25:29.565Z,51.03
2023-02-03T15:28:28.098Z,57.97
2023-02-03T15:31:40.372Z,58.15
2023-02-03T15:34:51.093Z,64.35
2023-02-03T15:37:48.139Z,57.08
2023-02-03T15:40:35.448Z,55.97
2023-02-03T15:43:45.329Z,65.85
2023-02-03T15:46:48.070Z,49.28
2023-02-03T15:49:47.102Z,61.08
2023-02-03T15:52:33.371Z,61.67
2023-02-03T15:55:41.067Z,61.03
2023-02-03T15:58:32.417Z,51.47
2023-02-03T16:01:23.060Z,68.65
2023-02-03T16:04:08.142Z,59.00
2023-02-03T16:07:00.158Z,52.20
2023-02-03T16:09:48.432Z,53.50
2023-02-03T16:12:40.146Z,54.80
2023-02-03T16:15:31.624Z,61.42
2023-02-03T16:18:26.097Z,49.30
2023-02-03T16:21:08.507Z,56.75
2023-02-03T16:24:00.093Z,56.15
2023-02-03T16:26:43.470Z,72.88
2023-02-03T16:29:56.064Z,56.70
2023-02-03T16:33:04.006Z,62.97
2023-02-03T16:36:05.085Z,66.57
2023-02-03T16:39:10.173Z,60.35
2023-02-03T16:42:18.026Z,63.70
2023-02-03T16:45:25.893Z,65.38
2023-02-03T16:48:27.476Z,65.13
2023-02-03T16:51:23.367Z,65.72
2023-02-03T16:54:05.014Z,78.07
2023-02-03T16:56:55.535Z,77.80
2023-02-03T16:59:58.977Z,85.15
2023-02-03T17:02:50.125Z,87.63
2023-02-03T17:05:33.203Z,77.75
2023-02-03T17:08:23.515Z,91.63
2023-02-03T17:11:12.186Z,95.32
2023-02-03T17:14:01.504Z,93.88
2023-02-03T17:16:43.161Z,91.03
2023-02-03T17:19:33.369Z,91.97
2023-02-03T17:22:16.090Z,102.45
2023-02-03T17:25:06.445Z,104.25
2023-02-03T17:27:48.103Z,102.53
2023-02-03T17:30:44.130Z,100.35
2023-02-03T17:33:33.318Z,96.95
2023-02-03T17:36:19.129Z,99.22
2023-02-03T17:54:26.483Z,104.10
2023-02-03T17:57:17.836Z,109.37
2023-02-03T18:00:02.957Z,102.43
2023-02-03T18:02:58.481Z,114.05
2023-02-03T18:05:40.986Z,112.75
2023-02-03T18:08:30.411Z,119.32
2023-02-03T18:11:13.073Z,97.75
2023-02-03T18:14:02.318Z,104.38
2023-02-03T18:16:45.095Z,129.75
2023-02-03T18:19:33.353Z,110.68
2023-02-03T18:22:16.008Z,112.65
2023-02-03T18:25:05.454Z,120.17
2023-02-03T18:27:48.079Z,118.10
2023-02-03T18:30:44.949Z,111.65
2023-02-03T18:33:33.955Z,101.90
2023-02-03T18:36:17.894Z,111.72
2023-02-03T18:41:48.397Z,112.38
2023-02-03T18:44:37.012Z,114.22
2023-02-03T18:47:21.292Z,113.03
2023-02-03T18:50:10.054Z,108.55
2023-02-03T18:52:53.607Z,112.57
2023-02-03T18:55:43.504Z,110.57
2023-02-03T18:58:25.414Z,99.82
2023-02-03T19:01:14.022Z,115.68
2023-02-03T19:03:56.289Z,92.97
2023-02-03T19:06:45.062Z,108.32
2023-02-03T19:09:28.440Z,107.28
2023-02-03T19:12:16.949Z,94.40
2023-02-03T19:14:59.411Z,94.00
2023-02-03T19:17:48.088Z,98.10
2023-02-03T19:20:30.706Z,99.38
2023-02-03T19:23:22.032Z,106.78
2023-02-03T19:26:05.300Z,94.63
2023-02-03T19:28:54.076Z,83.43
2023-02-03T19:31:49.056Z,98.65
2023-02-03T19:34:38.032Z,83.85
2023-02-03T19:37:20.302Z,87.00
2023-02-03T19:40:08.996Z,108.82
2023-02-03T19:42:51.365Z,92.85
2023-02-03T19:45:40.077Z,101.85
2023-02-03T19:48:22.520Z,102.63
2023-02-03T19:51:11.004Z,98.57
2023-02-03T19:53:53.766Z,88.03
2023-02-03T19:56:43.023Z,101.63
2023-02-03T19:59:25.442Z,98.22
2023-02-03T20:02:14.750Z,95.82
2023-02-03T20:04:57.440Z,98.95
2023-02-03T20:07:45.953Z,92.72
2023-02-03T20:10:29.069Z,105.93
2023-02-03T20:13:19.273Z,98.17
2023-02-03T20:16:01.435Z,100.35
2023-02-03T20:18:50.002Z,110.63
2023-02-03T20:21:32.330Z,107.55
2023-02-03T20:24:21.978Z,119.30
2023-02-03T20:27:04.360Z,115.85
2023-02-03T20:29:53.011Z,109.38
2023-02-03T20:32:42.330Z,119.88
2023-02-03T20:35:26.562Z,117.13
2023-02-03T20:38:14.921Z,125.63
2023-02-03T20:41:05.061Z,118.35
2023-02-03T20:43:54.470Z,127.78
2023-02-03T20:46:36.094Z,131.20
2023-02-03T20:49:26.743Z,138.00
2023-02-03T20:52:24.990Z,134.18
2023-02-03T20:55:15.205Z,136.30
2023-02-03T20:58:05.012Z,125.88
2023-02-03T21:00:58.258Z,125.25
2023-02-03T21:03:59.047Z,133.73
2023-02-03T21:06:47.962Z,128.40
2023-02-03T21:09:31.369Z,131.07
2023-02-03T21:12:21.048Z,132.75
2023-02-03T21:15:03.376Z,139.23
2023-02-03T21:17:51.998Z,140.73
2023-02-03T21:20:37.334Z,139.63
2023-02-03T21:23:25.970Z,131.65
2023-02-03T21:26:08.280Z,141.60
2023-02-03T21:29:00.570Z,127.55
2023-02-03T21:31:55.921Z,144.10
2023-02-03T21:34:44.992Z,133.43
2023-02-03T21:37:54.948Z,139.00
2023-02-03T21:40:44.011Z,139.10
2023-02-03T21:43:26.484Z,128.38
2023-02-03T21:46:39.948Z,127.63
2023-02-03T21:49:23.436Z,126.97
2023-02-03T21:52:12.019Z,128.00
2023-02-03T21:54:54.819Z,127.25
2023-02-03T21:57:44.137Z,131.33
2023-02-03T22:00:49.551Z,121.43
2023-02-03T22:03:51.035Z,123.70
2023-02-03T22:06:50.234Z,116.38
2023-02-03T22:09:40.030Z,119.00
2023-02-03T22:12:22.311Z,114.30
2023-02-03T22:15:10.981Z,112.70
2023-02-03T22:17:53.338Z,115.03
2023-02-03T22:20:42.089Z,117.78
2023-02-03T22:23:24.272Z,117.93
2023-02-03T22:26:13.062Z,118.60
2023-02-03T22:28:55.318Z,112.85
2023-02-03T22:31:51.155Z,110.07
2023-02-03T22:34:39.286Z,120.00
2023-02-03T22:37:20.937Z,119.38
2023-02-03T22:40:11.208Z,118.18
2023-02-03T22:42:54.031Z,124.78
2023-02-03T22:45:42.336Z,117.00
2023-02-03T22:48:25.075Z,123.00
2023-02-03T22:51:14.228Z,120.82
2023-02-03T22:53:57.068Z,123.15
2023-02-03T22:56:45.267Z,119.97
2023-02-03T22:59:27.017Z,120.05
2023-02-03T23:02:09.225Z,120.95
2023-02-03T23:05:00.990Z,128.77
2023-02-03T23:07:50.205Z,122.03
2023-02-03T23:10:37.986Z,119.25
2023-02-03T23:13:26.376Z,122.78
2023-02-03T23:16:08.139Z,118.80
2023-02-03T23:18:56.213Z,122.93
2023-02-03T23:21:38.940Z,117.88
2023-02-03T23:24:27.246Z,122.10
2023-02-03T23:27:10.021Z,120.68
2023-02-03T23:29:58.305Z,123.05
2023-02-03T23:32:46.937Z,114.75
2023-02-03T23:35:48.963Z,115.78
2023-02-03T23:38:37.970Z,115.00
2023-02-03T23:41:20.285Z,117.50
2023-02-03T23:44:08.980Z,128.98
2023-02-03T23:46:58.005Z,127.20
2023-02-03T23:49:46.886Z,116.75
2023-02-03T23:52:43.016Z,122.53
2023-02-03T23:55:25.751Z,110.65
2023-02-03T23:58:14.917Z,124.20
